Saturday, February 6, 2016, 6:20 AM EST

KPHF, Williamsburg International Airport

Location: Newport News, VA, United States Lat: 37.133
Local Time: 6:20 AM EST (11:20 GMT) Lon: -76.5
Time Zone: US/Eastern Elev: 42 ft

Show me the last for .
Show Decoded

2016-02-06 05:54 METAR KPHF 061054Z 00000KT 10SM CLR M02/M04 A3045 RMK AO2 SLP310 I1000 T10221044
                 =
2016-02-06 04:54 METAR KPHF 060954Z 00000KT 10SM CLR M03/M04 A3044 RMK AO2 UPB49E54 SLP307 P0000
                 I1000 T10281044 =
2016-02-06 03:54 METAR KPHF 060854Z 00000KT 10SM CLR M03/M04 A3043 RMK AO2 SLP303 60000 T10281044
                 51005 =
2016-02-06 02:54 METAR KPHF 060754Z 00000KT 10SM CLR M02/M04 A3042 RMK AO2 UPB34E45 SLP301 P0000
                 T10221044 =
2016-02-06 01:54 METAR KPHF 060654Z 00000KT 10SM CLR M02/M04 A3042 RMK AO2 UPB02E12 SLP301 P0000
                 T10221044 =
2016-02-06 00:54 METAR KPHF 060554Z 31003KT 10SM CLR M02/M04 A3041 RMK AO2 SLP298 T10221044 10039
                 21022 50004 =
2016-02-05 23:54 METAR KPHF 060454Z 03003KT 10SM CLR M01/M05 A3041 RMK AO2 SLP299 T10111050
                 400721011 =
2016-02-05 22:54 METAR KPHF 060354Z 03005KT 10SM CLR 01/M06 A3040 RMK AO2 SLP295 T00111061 =
2016-02-05 21:54 METAR KPHF 060254Z AUTO 36004KT 10SM CLR 01/M05 A3040 RMK AO2 SLP294 T00111050
                 51016 =
2016-02-05 20:54 METAR KPHF 060154Z AUTO 01003KT 10SM CLR 02/M04 A3039 RMK AO2 SLP290 T00171044 =
2016-02-05 19:54 METAR KPHF 060054Z AUTO 34003KT 10SM CLR 02/M04 A3037 RMK AO2 SLP284 T00221044 =
2016-02-05 18:54 METAR KPHF 052354Z AUTO 35003KT 10SM CLR 04/M04 A3035 RMK AO2 SLP278 T00391044
                 10072 20033 51026 =
2016-02-05 17:54 METAR KPHF 052254Z AUTO 34005KT 10SM CLR 04/M04 A3034 RMK AO2 SLP274 T00441039 =
2016-02-05 16:54 METAR KPHF 052154Z AUTO 34007KT 10SM CLR 06/M04 A3030 RMK AO2 SLP259 T00611039 =
2016-02-05 15:54 METAR KPHF 052054Z AUTO 33010KT 10SM CLR 07/M03 A3027 RMK AO2 SLP251 T00721033
                 55003 =
2016-02-05 14:54 METAR KPHF 051954Z AUTO 35010KT 10SM FEW045 06/M02 A3027 RMK AO2 SLP250
                 T00611022 =
2016-02-05 13:54 METAR KPHF 051854Z 32011KT 10SM FEW043 07/M02 A3028 RMK AO2 SLP255 T00671017 =
2016-02-05 12:54 METAR KPHF 051754Z 33012G22KT 10SM FEW070 06/M02 A3028 RMK AO2 SLP254 60005
                 T00561022 10056 20011 51022 =
2016-02-05 11:54 METAR KPHF 051654Z 33016G22KT 10SM BKN037 OVC045 04/M02 A3028 RMK AO2 SLP253
                 T00441017 =
2016-02-05 10:54 METAR KPHF 051554Z 33012G19KT 10SM OVC040 04/M01 A3025 RMK AO2 SLP243 T00441011
                 =
2016-02-05 10:22 METAR KPHF 051522Z 33011G21KT 10SM FEW024 SCT029 OVC038 04/M01 A3024 RMK AO2
                 T00391006 =
2016-02-05 09:54 METAR KPHF 051454Z 32008G17KT 10SM SCT021 OVC029 03/01 A3022 RMK AO2 RAE07
                 SLP233 P0000 60005 T00330006 53023 =
2016-02-05 09:31 METAR KPHF 051431Z 32012G23KT 10SM FEW013 BKN020 BKN034 03/01 A3020 RMK AO2
                 RAE07 P0000 T00330006 =
2016-02-05 09:04 METAR KPHF 051404Z 34011KT 10SM -RA SCT010 BKN015 OVC032 03/01 A3018 RMK AO2
                 P0000 T00280011 =
2016-02-05 08:54 METAR KPHF 051354Z 33008G17KT 5SM -RA BR BKN010 BKN018 OVC032 02/01 A3018 RMK
                 AO2 RAB24SNE24 PRESRR SLP221 P0000 T00220006 =
2016-02-05 08:50 METAR KPHF 051350Z 33011G17KT 5SM -RA BR BKN010 BKN014 OVC032 02/01 A3017 RMK
                 AO2 RAB24SNE24 P0000 =
2016-02-05 08:22 METAR KPHF 051322Z 36011G17KT 1SM -SN BR BKN011 OVC022 02/01 A3017 RMK AO2 P0000
                 T00170006 =
2016-02-05 08:15 METAR KPHF 051315Z 36009G18KT 1SM -SN BR BKN009 BKN015 OVC020 01/00 A3017 RMK
                 AO2 P0000 T00110000 =
2016-02-05 08:04 METAR KPHF 051304Z 36012G20KT 1SM -SN BR BKN010 OVC015 01/01 A3018 RMK AO2
                 PRESRR P0000 T00110006 =
2016-02-05 07:54 METAR KPHF 051254Z 34012G22KT 1SM -SN BR OVC009 01/00 A3015 RMK AO2 SLP209 P0005
                 T00110000 =
2016-02-05 07:36 METAR KPHF 051236Z 33014G23KT 1 1/2SM -SN BR OVC009 01/00 A3014 RMK AO2 P0004
                 T00110000 =
2016-02-05 07:01 METAR KPHF 051201Z 33014G22KT 2SM -SN BR BKN007 OVC012 01/00 A3011 =
2016-02-05 06:54 METAR KPHF 051154Z 35014G19KT 1SM -SN BR BKN007 OVC012 01/00 A3007 RMK AO2
                 RAE1055B06E11B38E41SNB1055 SLP183 P0006 60048 70141 T00110000 10050 20011 53022
                 =
2016-02-05 06:27 METAR KPHF 051127Z 35012G19KT 1SM -SN BR BKN008 OVC014 01/00 A3007 RMK AO2
                 RAE1055B06E11SNB1055 P0002 T00110000 =

Support USWX by starting your Amazon purchase here.